Time;durP1;ratioP1;P1;durP2;ratioP2;P2;SDS_P1;SDS_P2;PMS_P1;PMS_P2;Temp;Humidity;BMP_temperature;BMP_pressure;BME280_temperature;BME280_humidity;BME280_pressure;Samples;Min_cycle;Max_cycle;Signal;HPM_P1;HPM_P2
2023/02/18 00:02:26;;;;;;;10.90;8.20;;;;;;;;;;6325358;28;20098;-75
2023/02/18 00:05:29;;;;;;;13.40;8.15;;;;;;;;;;6326326;27;20056;-70
2023/02/18 00:08:30;;;;;;;12.02;8.48;;;;;;;;;;6330569;28;20044;-75
2023/02/18 00:11:34;;;;;;;10.93;8.32;;;;;;;;;;6325245;28;20070;-75
2023/02/18 00:14:36;;;;;;;9.90;7.93;;;;;;;;;;6328913;28;20533;-77
2023/02/18 00:17:39;;;;;;;13.63;8.30;;;;;;;;;;6330202;27;20058;-76
2023/02/18 00:20:41;;;;;;;15.50;9.00;;;;;;;;;;6327693;28;20082;-76
2023/02/18 00:23:43;;;;;;;13.38;8.00;;;;;;;;;;6326276;27;20046;-75
2023/02/18 00:26:44;;;;;;;18.02;8.70;;;;;;;;;;6323786;27;20267;-74
2023/02/18 00:29:46;;;;;;;17.40;8.93;;;;;;;;;;6328144;28;20107;-74
2023/02/18 00:32:49;;;;;;;18.92;9.10;;;;;;;;;;6326982;28;20059;-77
2023/02/18 00:35:51;;;;;;;11.30;8.32;;;;;;;;;;6326383;28;20064;-75
2023/02/18 00:38:54;;;;;;;12.55;8.15;;;;;;;;;;6327297;28;20056;-77
2023/02/18 00:41:56;;;;;;;13.23;7.78;;;;;;;;;;6328343;27;20085;-75
2023/02/18 00:44:58;;;;;;;11.90;7.82;;;;;;;;;;6325537;27;20064;-76
2023/02/18 00:48:01;;;;;;;10.68;7.80;;;;;;;;;;6324506;27;20282;-73
2023/02/18 00:51:04;;;;;;;10.32;6.93;;;;;;;;;;6327948;27;20379;-77
2023/02/18 00:54:06;;;;;;;15.45;7.30;;;;;;;;;;6326737;28;20120;-76
2023/02/18 00:57:08;;;;;;;10.68;7.80;;;;;;;;;;6326399;28;20070;-76
2023/02/18 01:00:11;;;;;;;10.15;7.60;;;;;;;;;;6328821;28;20047;-76
2023/02/18 01:03:14;;;;;;;9.93;6.95;;;;;;;;;;6327731;28;20063;-77
2023/02/18 01:06:16;;;;;;;9.43;7.20;;;;;;;;;;6325951;28;20039;-76
2023/02/18 01:09:17;;;;;;;9.48;7.22;;;;;;;;;;6327356;28;20245;-74
2023/02/18 01:12:19;;;;;;;9.82;6.90;;;;;;;;;;6325166;28;20244;-76
2023/02/18 01:15:21;;;;;;;10.40;6.97;;;;;;;;;;6328845;28;20259;-75
2023/02/18 01:18:25;;;;;;;9.38;6.85;;;;;;;;;;6325019;28;20040;-77
2023/02/18 01:21:27;;;;;;;13.32;8.55;;;;;;;;;;6324155;27;20094;-74
2023/02/18 01:24:28;;;;;;;11.43;7.90;;;;;;;;;;6328806;27;20044;-77
2023/02/18 01:27:30;;;;;;;9.38;7.35;;;;;;;;;;6325377;28;20063;-77
2023/02/18 01:30:32;;;;;;;11.68;7.85;;;;;;;;;;6327780;28;20059;-75
2023/02/18 01:33:35;;;;;;;11.25;7.00;;;;;;;;;;6324695;27;20058;-77
2023/02/18 01:36:37;;;;;;;12.17;8.47;;;;;;;;;;6326956;28;20063;-75
2023/02/18 01:39:39;;;;;;;12.80;7.53;;;;;;;;;;6324833;27;20545;-76
2023/02/18 01:42:41;;;;;;;10.95;7.55;;;;;;;;;;6324829;28;20335;-73
2023/02/18 01:45:51;;;;;;;10.75;7.72;;;;;;;;;;6324288;28;20051;-76
2023/02/18 01:48:56;;;;;;;16.08;7.25;;;;;;;;;;6326087;27;20048;-75
2023/02/18 01:52:00;;;;;;;10.13;7.15;;;;;;;;;;6328029;27;20047;-77
2023/02/18 01:55:02;;;;;;;12.02;7.70;;;;;;;;;;6325021;27;20075;-77
2023/02/18 01:58:03;;;;;;;11.88;7.75;;;;;;;;;;6324305;28;20051;-75
2023/02/18 02:01:06;;;;;;;10.63;7.43;;;;;;;;;;6325331;28;20052;-76
2023/02/18 02:04:09;;;;;;;11.48;7.00;;;;;;;;;;6324653;28;20101;-77
2023/02/18 02:07:11;;;;;;;11.77;7.57;;;;;;;;;;6324334;28;20047;-74
2023/02/18 02:10:14;;;;;;;11.23;7.60;;;;;;;;;;6329485;28;20052;-76
2023/02/18 02:13:19;;;;;;;13.25;7.47;;;;;;;;;;6325255;27;20051;-76
2023/02/18 02:16:28;;;;;;;11.85;7.90;;;;;;;;;;6327342;28;20047;-75
2023/02/18 02:20:01;;;;;;;11.43;7.82;;;;;;;;;;6324398;28;20097;-76
2023/02/18 02:27:22;;;;;;;11.32;7.70;;;;;;;;;;7184427;22;20048;-73
2023/02/18 02:30:42;;;;;;;12.55;7.32;;;;;;;;;;6247205;28;20065;-78
2023/02/18 02:34:18;;;;;;;10.38;7.55;;;;;;;;;;6251124;28;20048;-76
2023/02/18 02:37:26;;;;;;;11.82;7.90;;;;;;;;;;6238734;28;20091;-77
2023/02/18 02:40:31;;;;;;;9.82;7.32;;;;;;;;;;6252194;28;20057;-76
2023/02/18 02:43:40;;;;;;;10.73;8.13;;;;;;;;;;6257288;28;20108;-76
2023/02/18 02:46:45;;;;;;;10.63;7.35;;;;;;;;;;6259620;28;20057;-76
2023/02/18 02:49:50;;;;;;;11.15;7.35;;;;;;;;;;6257104;28;20053;-76
2023/02/18 02:52:58;;;;;;;14.95;7.43;;;;;;;;;;6255650;28;20050;-73
2023/02/18 02:56:00;;;;;;;11.38;7.25;;;;;;;;;;6251638;28;20064;-76
2023/02/18 02:59:03;;;;;;;9.50;7.57;;;;;;;;;;6261513;28;20071;-77
2023/02/18 03:02:19;;;;;;;9.00;7.70;;;;;;;;;;6255320;28;20057;-75
2023/02/18 03:05:27;;;;;;;12.10;8.10;;;;;;;;;;6249052;28;20052;-76
2023/02/18 03:08:38;;;;;;;15.80;8.45;;;;;;;;;;6250860;28;20305;-76
2023/02/18 03:11:44;;;;;;;10.98;8.02;;;;;;;;;;6255132;28;20050;-76
2023/02/18 03:14:53;;;;;;;11.40;8.50;;;;;;;;;;6255903;28;20246;-77
2023/02/18 03:17:58;;;;;;;14.25;8.65;;;;;;;;;;6251240;28;20051;-76
2023/02/18 03:21:03;;;;;;;12.23;8.57;;;;;;;;;;6246492;28;20060;-76
2023/02/18 03:24:12;;;;;;;13.23;8.75;;;;;;;;;;6263321;28;20049;-76
2023/02/18 03:27:17;;;;;;;13.07;8.60;;;;;;;;;;6246882;28;20057;-76
2023/02/18 03:30:22;;;;;;;12.68;8.52;;;;;;;;;;6264683;28;20051;-76
2023/02/18 03:33:26;;;;;;;13.00;8.50;;;;;;;;;;6266530;28;20045;-77
2023/02/18 03:36:28;;;;;;;13.30;8.80;;;;;;;;;;6267405;28;20053;-78
2023/02/18 03:39:33;;;;;;;11.73;8.25;;;;;;;;;;6264759;28;20045;-76
2023/02/18 03:42:34;;;;;;;12.73;8.50;;;;;;;;;;6266110;28;20324;-77
2023/02/18 03:45:36;;;;;;;13.02;8.82;;;;;;;;;;6261407;28;20102;-77
2023/02/18 03:48:38;;;;;;;13.32;8.43;;;;;;;;;;6266659;28;20256;-75
2023/02/18 03:51:39;;;;;;;11.20;8.40;;;;;;;;;;6265156;28;20037;-77
2023/02/18 03:54:42;;;;;;;15.38;8.85;;;;;;;;;;6265858;28;20060;-77
2023/02/18 03:57:44;;;;;;;13.48;8.65;;;;;;;;;;6262821;28;20053;-75
2023/02/18 04:00:46;;;;;;;12.20;8.18;;;;;;;;;;6265017;28;20128;-72
2023/02/18 04:03:47;;;;;;;13.88;8.25;;;;;;;;;;6265695;28;20084;-76
2023/02/18 04:06:49;;;;;;;14.98;8.60;;;;;;;;;;6263951;28;20352;-73
2023/02/18 04:09:52;;;;;;;11.52;8.68;;;;;;;;;;6266961;28;20052;-73
2023/02/18 04:12:54;;;;;;;14.02;9.15;;;;;;;;;;6264663;28;20069;-74
2023/02/18 04:15:56;;;;;;;14.38;8.75;;;;;;;;;;6265467;28;20055;-76
2023/02/18 04:18:57;;;;;;;14.13;9.65;;;;;;;;;;6264670;28;20103;-74
2023/02/18 04:21:59;;;;;;;18.88;9.20;;;;;;;;;;6265212;28;20116;-75
2023/02/18 04:25:02;;;;;;;11.93;8.95;;;;;;;;;;6266817;28;20240;-76
2023/02/18 04:28:04;;;;;;;11.35;8.38;;;;;;;;;;6264223;28;20049;-75
2023/02/18 04:31:06;;;;;;;14.60;8.88;;;;;;;;;;6267364;28;20753;-73
2023/02/18 04:34:08;;;;;;;16.85;9.48;;;;;;;;;;6262389;28;20383;-74
2023/02/18 04:37:09;;;;;;;15.40;8.15;;;;;;;;;;6265866;28;20095;-74
2023/02/18 04:40:13;;;;;;;18.67;9.93;;;;;;;;;;6262833;28;20052;-74
2023/02/18 04:43:15;;;;;;;18.40;9.50;;;;;;;;;;6266416;28;20052;-76
2023/02/18 04:46:16;;;;;;;14.95;9.00;;;;;;;;;;6268234;28;20237;-77
2023/02/18 04:49:18;;;;;;;14.98;9.45;;;;;;;;;;6264494;28;20060;-75
2023/02/18 04:52:20;;;;;;;14.55;9.20;;;;;;;;;;6270791;28;20057;-75
2023/02/18 04:55:23;;;;;;;14.98;9.50;;;;;;;;;;6270680;28;20265;-75
2023/02/18 04:58:25;;;;;;;15.43;9.40;;;;;;;;;;6272056;28;20041;-75
2023/02/18 05:01:27;;;;;;;13.90;9.10;;;;;;;;;;6266520;28;20383;-76
2023/02/18 05:04:28;;;;;;;17.75;10.00;;;;;;;;;;6270363;28;20111;-73
2023/02/18 05:07:30;;;;;;;14.77;9.50;;;;;;;;;;6270693;28;20257;-77
2023/02/18 05:10:33;;;;;;;17.50;10.75;;;;;;;;;;6270685;28;20045;-78
2023/02/18 05:13:35;;;;;;;18.20;10.25;;;;;;;;;;6268632;28;20050;-76
2023/02/18 05:16:37;;;;;;;14.13;9.25;;;;;;;;;;6268608;28;20052;-77
2023/02/18 05:19:38;;;;;;;16.75;10.10;;;;;;;;;;6268919;28;20045;-77
2023/02/18 05:22:40;;;;;;;14.50;10.18;;;;;;;;;;6269208;28;20053;-76
2023/02/18 05:25:43;;;;;;;16.05;10.63;;;;;;;;;;6267151;28;20105;-74
2023/02/18 05:28:45;;;;;;;17.50;10.68;;;;;;;;;;6268624;28;20071;-76
2023/02/18 05:31:47;;;;;;;15.68;10.75;;;;;;;;;;6263636;28;20049;-78
2023/02/18 05:34:49;;;;;;;16.48;10.65;;;;;;;;;;6267651;28;20360;-75
2023/02/18 05:37:50;;;;;;;16.15;11.07;;;;;;;;;;6266232;28;20052;-72
2023/02/18 05:40:53;;;;;;;15.85;10.82;;;;;;;;;;6267207;28;20056;-76
2023/02/18 05:47:15;;;;;;;18.20;11.65;;;;;;;;;;6266743;28;20053;-76
2023/02/18 05:50:17;;;;;;;18.55;12.07;;;;;;;;;;6266544;28;20045;-76
2023/02/18 05:53:18;;;;;;;17.35;11.23;;;;;;;;;;6265248;28;20264;-75
2023/02/18 05:56:21;;;;;;;22.33;12.68;;;;;;;;;;6268878;28;20056;-76
2023/02/18 05:59:23;;;;;;;17.58;12.05;;;;;;;;;;6265108;28;20049;-76
2023/02/18 06:02:25;;;;;;;22.10;12.55;;;;;;;;;;6265323;28;20053;-74
2023/02/18 06:05:27;;;;;;;19.63;12.77;;;;;;;;;;6265060;28;20076;-76
2023/02/18 06:08:28;;;;;;;20.05;13.25;;;;;;;;;;6266281;28;20053;-76
2023/02/18 06:11:31;;;;;;;27.52;14.20;;;;;;;;;;6265136;28;20059;-77
2023/02/18 06:14:33;;;;;;;19.65;13.32;;;;;;;;;;6265458;28;21055;-75
2023/02/18 06:17:35;;;;;;;22.27;13.10;;;;;;;;;;6266746;28;20045;-76
2023/02/18 06:20:36;;;;;;;25.85;12.93;;;;;;;;;;6269301;28;20049;-75
2023/02/18 06:23:38;;;;;;;20.95;13.93;;;;;;;;;;6265395;28;20048;-76
2023/02/18 06:26:41;;;;;;;21.40;14.30;;;;;;;;;;6266165;28;20198;-75
2023/02/18 06:29:43;;;;;;;22.13;14.02;;;;;;;;;;6263910;28;20052;-76
2023/02/18 06:32:44;;;;;;;23.08;13.82;;;;;;;;;;6264093;28;20049;-76
2023/02/18 06:35:53;;;;;;;22.15;14.95;;;;;;;;;;6265764;28;20064;-75
2023/02/18 06:38:56;;;;;;;26.80;16.17;;;;;;;;;;6265922;28;20075;-76
2023/02/18 06:41:59;;;;;;;21.88;14.27;;;;;;;;;;6263823;28;20060;-77
2023/02/18 06:45:01;;;;;;;22.45;14.90;;;;;;;;;;6265730;28;20254;-74
2023/02/18 06:48:02;;;;;;;24.48;15.30;;;;;;;;;;6266089;28;20332;-73
2023/02/18 06:51:04;;;;;;;23.27;14.77;;;;;;;;;;6266144;28;20053;-74
2023/02/18 06:54:06;;;;;;;25.58;14.90;;;;;;;;;;6268445;28;20484;-76
2023/02/18 06:57:09;;;;;;;24.42;14.55;;;;;;;;;;6262464;28;20056;-75
2023/02/18 07:00:11;;;;;;;25.63;14.88;;;;;;;;;;6267551;28;20048;-75
2023/02/18 07:03:14;;;;;;;22.95;14.23;;;;;;;;;;6262402;28;20054;-75
2023/02/18 07:06:16;;;;;;;23.75;15.63;;;;;;;;;;6266009;28;20045;-76
2023/02/18 07:09:17;;;;;;;31.05;16.35;;;;;;;;;;6265844;28;20048;-75
2023/02/18 07:12:21;;;;;;;23.63;16.70;;;;;;;;;;6265462;28;20139;-76
2023/02/18 07:15:23;;;;;;;25.58;16.35;;;;;;;;;;6262923;28;20056;-76
2023/02/18 07:18:24;;;;;;;25.98;16.67;;;;;;;;;;6264217;28;20052;-75
2023/02/18 07:21:26;;;;;;;26.92;16.80;;;;;;;;;;6263762;28;20099;-74
2023/02/18 07:24:28;;;;;;;24.10;16.30;;;;;;;;;;6266145;28;20339;-74
2023/02/18 07:27:31;;;;;;;26.35;17.00;;;;;;;;;;6262164;28;20060;-75
2023/02/18 07:30:32;;;;;;;25.55;15.88;;;;;;;;;;6265215;28;20049;-76
2023/02/18 07:33:34;;;;;;;25.67;16.88;;;;;;;;;;6266072;28;20045;-74
2023/02/18 07:36:36;;;;;;;25.52;17.75;;;;;;;;;;6264690;28;20053;-75
2023/02/18 07:39:40;;;;;;;24.13;16.45;;;;;;;;;;6266497;28;20075;-75
2023/02/18 07:42:43;;;;;;;25.20;15.50;;;;;;;;;;6264372;28;20056;-74
2023/02/18 07:45:45;;;;;;;22.45;16.15;;;;;;;;;;6264326;28;20052;-77
2023/02/18 07:48:47;;;;;;;26.58;15.93;;;;;;;;;;6263128;28;20061;-76
2023/02/18 07:51:49;;;;;;;23.35;16.00;;;;;;;;;;6264520;28;20049;-75
2023/02/18 07:54:50;;;;;;;22.38;15.32;;;;;;;;;;6266221;28;20049;-74
2023/02/18 07:58:01;;;;;;;21.77;15.63;;;;;;;;;;6266378;28;20091;-75
2023/02/18 08:01:05;;;;;;;25.85;15.85;;;;;;;;;;6263484;28;20042;-76
2023/02/18 08:04:07;;;;;;;22.63;16.35;;;;;;;;;;6264334;28;20053;-76
2023/02/18 08:07:13;;;;;;;22.15;15.55;;;;;;;;;;6264075;28;20049;-77
2023/02/18 08:10:14;;;;;;;24.20;16.30;;;;;;;;;;6264534;28;20053;-75
2023/02/18 08:13:17;;;;;;;25.73;16.17;;;;;;;;;;6263250;28;20359;-76
2023/02/18 08:16:20;;;;;;;25.20;16.07;;;;;;;;;;6263722;28;20068;-72
2023/02/18 08:19:22;;;;;;;26.83;16.65;;;;;;;;;;6263950;28;20340;-75
2023/02/18 08:22:24;;;;;;;26.45;16.08;;;;;;;;;;6262794;28;20045;-76
2023/02/18 08:25:26;;;;;;;21.90;15.95;;;;;;;;;;6263645;28;20057;-74
2023/02/18 08:28:29;;;;;;;20.70;15.60;;;;;;;;;;6269521;28;20074;-76
2023/02/18 08:31:31;;;;;;;22.20;16.52;;;;;;;;;;6266612;28;20060;-76
2023/02/18 08:34:32;;;;;;;25.00;16.70;;;;;;;;;;6268491;28;20064;-74
2023/02/18 08:37:34;;;;;;;27.90;17.58;;;;;;;;;;6270927;28;20053;-74
2023/02/18 08:40:36;;;;;;;27.27;18.30;;;;;;;;;;6269604;28;20368;-74
2023/02/18 08:43:39;;;;;;;25.13;17.13;;;;;;;;;;6268513;28;20112;-74
2023/02/18 08:46:40;;;;;;;24.02;16.77;;;;;;;;;;6267917;28;20052;-75
2023/02/18 08:49:42;;;;;;;22.17;16.58;;;;;;;;;;6270633;28;20045;-76
2023/02/18 08:52:44;;;;;;;23.45;16.23;;;;;;;;;;6268055;28;20061;-76
2023/02/18 08:55:46;;;;;;;22.58;15.63;;;;;;;;;;6267107;28;20060;-71
2023/02/18 08:58:49;;;;;;;24.92;16.80;;;;;;;;;;6269105;28;20063;-72
2023/02/18 09:01:50;;;;;;;23.55;15.77;;;;;;;;;;6266507;28;20053;-72
2023/02/18 09:04:52;;;;;;;26.48;17.10;;;;;;;;;;6266608;28;20264;-71
2023/02/18 09:07:54;;;;;;;21.02;15.40;;;;;;;;;;6266103;28;20053;-71
2023/02/18 09:10:56;;;;;;;31.27;15.88;;;;;;;;;;6268325;28;20321;-72
2023/02/18 09:13:59;;;;;;;28.17;15.95;;;;;;;;;;6266950;28;20073;-71
2023/02/18 09:17:01;;;;;;;25.00;16.30;;;;;;;;;;6266749;28;20057;-72
2023/02/18 09:20:04;;;;;;;25.42;16.48;;;;;;;;;;6264305;28;20095;-72
2023/02/18 09:23:05;;;;;;;22.48;16.23;;;;;;;;;;6265897;28;20048;-72
2023/02/18 09:26:09;;;;;;;23.23;16.15;;;;;;;;;;6268243;28;20053;-71
2023/02/18 09:29:12;;;;;;;22.13;15.13;;;;;;;;;;6266247;28;20049;-71
2023/02/18 09:32:14;;;;;;;28.30;16.73;;;;;;;;;;6266434;28;20091;-71
2023/02/18 09:35:16;;;;;;;19.75;14.05;;;;;;;;;;6264057;28;20099;-71
2023/02/18 09:38:18;;;;;;;19.20;15.43;;;;;;;;;;6267985;28;20057;-72
2023/02/18 09:41:27;;;;;;;26.73;14.90;;;;;;;;;;6264036;28;20060;-71
2023/02/18 09:44:34;;;;;;;21.23;13.35;;;;;;;;;;6265452;28;20108;-73
2023/02/18 09:47:37;;;;;;;18.85;13.73;;;;;;;;;;6264627;28;20045;-74
2023/02/18 09:50:39;;;;;;;19.60;12.52;;;;;;;;;;6263431;28;20263;-72
2023/02/18 09:53:43;;;;;;;17.95;12.77;;;;;;;;;;6265721;28;20366;-70
2023/02/18 09:56:45;;;;;;;18.83;12.45;;;;;;;;;;6266364;28;20321;-73
2023/02/18 09:59:52;;;;;;;19.90;12.15;;;;;;;;;;6266144;28;20146;-73
2023/02/18 10:02:56;;;;;;;18.17;12.88;;;;;;;;;;6262636;28;20052;-74
2023/02/18 10:05:57;;;;;;;;;;;;;;;;;;6267209;28;20041;-74
2023/02/18 10:09:02;;;;;;;19.00;12.07;;;;;;;;;;6265518;28;19924;-76
2023/02/18 10:12:13;;;;;;;15.60;11.40;;;;;;;;;;6267331;28;20098;-76
2023/02/18 10:15:21;;;;;;;14.43;11.30;;;;;;;;;;6267826;28;20090;-78
2023/02/18 10:18:27;;;;;;;13.57;10.50;;;;;;;;;;6267601;28;20333;-75
2023/02/18 10:21:31;;;;;;;15.10;11.00;;;;;;;;;;6263627;28;20550;-75
2023/02/18 10:24:35;;;;;;;15.15;11.60;;;;;;;;;;6265541;28;20053;-74
2023/02/18 10:27:38;;;;;;;17.77;11.57;;;;;;;;;;6266168;28;20059;-75
2023/02/18 10:30:43;;;;;;;13.43;9.97;;;;;;;;;;6266426;28;20052;-76
2023/02/18 10:33:47;;;;;;;20.55;10.98;;;;;;;;;;6272482;28;20103;-75
2023/02/18 10:36:51;;;;;;;15.20;11.32;;;;;;;;;;6269096;28;20064;-76
2023/02/18 10:40:02;;;;;;;14.85;10.55;;;;;;;;;;6263648;28;20049;-76
2023/02/18 10:43:12;;;;;;;14.35;10.25;;;;;;;;;;6264418;28;20711;-77
2023/02/18 10:46:19;;;;;;;17.20;10.77;;;;;;;;;;6265620;28;20644;-77
2023/02/18 10:49:34;;;;;;;15.20;9.77;;;;;;;;;;6264031;28;20110;-76
2023/02/18 10:52:40;;;;;;;15.43;10.15;;;;;;;;;;6266757;28;20073;-77
2023/02/18 10:55:43;;;;;;;15.95;10.88;;;;;;;;;;6266372;28;20056;-77
2023/02/18 10:58:47;;;;;;;14.32;10.68;;;;;;;;;;6266138;28;20096;-76
2023/02/18 11:01:56;;;;;;;15.55;10.48;;;;;;;;;;6264738;28;20043;-77
2023/02/18 11:04:59;;;;;;;14.65;9.95;;;;;;;;;;6262280;28;20332;-77
2023/02/18 11:08:01;;;;;;;19.42;12.35;;;;;;;;;;6262265;28;20042;-75
2023/02/18 11:11:09;;;;;;;16.25;11.38;;;;;;;;;;6261448;28;20538;-75
2023/02/18 11:14:14;;;;;;;14.13;10.95;;;;;;;;;;6261648;28;20129;-76
2023/02/18 11:17:20;;;;;;;13.85;10.45;;;;;;;;;;6263418;28;20045;-75
2023/02/18 11:20:32;;;;;;;17.58;10.65;;;;;;;;;;6264140;28;20126;-72
2023/02/18 11:23:46;;;;;;;15.23;9.80;;;;;;;;;;6264803;28;20053;-71
2023/02/18 11:26:47;;;;;;;14.80;10.48;;;;;;;;;;6262831;28;20096;-73
2023/02/18 11:29:52;;;;;;;12.63;8.57;;;;;;;;;;6264232;28;20041;-74
2023/02/18 11:32:58;;;;;;;13.63;8.98;;;;;;;;;;6261894;28;20066;-74
2023/02/18 11:36:05;;;;;;;14.80;8.88;;;;;;;;;;6265443;28;20057;-74
2023/02/18 11:39:17;;;;;;;13.90;9.23;;;;;;;;;;6264386;28;20051;-75
2023/02/18 11:42:20;;;;;;;14.88;10.55;;;;;;;;;;6263161;28;20053;-74
2023/02/18 11:45:27;;;;;;;19.50;11.45;;;;;;;;;;6263142;28;20045;-78
2023/02/18 11:48:31;;;;;;;14.23;10.70;;;;;;;;;;6264961;28;20370;-78
2023/02/18 11:51:35;;;;;;;;;;;;;;;;;;6262685;28;20103;-80
2023/02/18 11:54:37;;;;;;;14.88;11.35;;;;;;;;;;6265406;28;19928;-74
2023/02/18 11:57:41;;;;;;;16.33;12.10;;;;;;;;;;6261491;28;20053;-75
2023/02/18 12:00:44;;;;;;;19.10;11.73;;;;;;;;;;6264562;28;20104;-73
2023/02/18 12:03:52;;;;;;;13.20;10.95;;;;;;;;;;6266599;28;20357;-76
2023/02/18 12:07:05;;;;;;;15.55;10.02;;;;;;;;;;6267128;28;20056;-75
2023/02/18 12:10:13;;;;;;;15.35;10.35;;;;;;;;;;6270611;28;20060;-74
2023/02/18 12:13:23;;;;;;;12.73;10.07;;;;;;;;;;6264110;28;20060;-74
2023/02/18 12:16:34;;;;;;;12.55;11.10;;;;;;;;;;6267263;28;20057;-74
2023/02/18 12:19:53;;;;;;;16.83;11.40;;;;;;;;;;6269325;28;20337;-79
2023/02/18 12:22:59;;;;;;;12.65;10.35;;;;;;;;;;6272227;28;20329;-73
2023/02/18 12:26:05;;;;;;;12.73;10.38;;;;;;;;;;6272347;28;20259;-72
2023/02/18 12:29:21;;;;;;;22.80;10.60;;;;;;;;;;6269203;28;20268;-72
2023/02/18 12:32:40;;;;;;;15.48;9.55;;;;;;;;;;6268428;28;20084;-71
2023/02/18 12:35:57;;;;;;;14.07;10.13;;;;;;;;;;6274534;28;20120;-74
2023/02/18 12:39:06;;;;;;;12.23;9.93;;;;;;;;;;6272768;28;20060;-73
2023/02/18 12:42:23;;;;;;;13.40;9.98;;;;;;;;;;6271878;28;20056;-72
2023/02/18 12:45:41;;;;;;;13.05;9.88;;;;;;;;;;6270276;28;20270;-76
2023/02/18 12:48:58;;;;;;;10.05;8.98;;;;;;;;;;6270866;28;20044;-73
2023/02/18 12:52:15;;;;;;;10.65;8.50;;;;;;;;;;6273981;28;20053;-73
2023/02/18 12:55:27;;;;;;;12.05;8.25;;;;;;;;;;6271350;28;20064;-75
2023/02/18 12:58:39;;;;;;;10.00;7.00;;;;;;;;;;6272400;28;20047;-73
2023/02/18 13:01:48;;;;;;;8.38;6.47;;;;;;;;;;6269577;28;20068;-73
2023/02/18 13:04:55;;;;;;;11.18;6.95;;;;;;;;;;6272812;28;20222;-74
2023/02/18 13:08:09;;;;;;;10.18;7.18;;;;;;;;;;6271512;28;20300;-74
2023/02/18 13:11:23;;;;;;;;;;;;;;;;;;6270115;28;20061;-71
2023/02/18 13:14:28;;;;;;;9.48;6.47;;;;;;;;;;6269350;28;19925;-74
2023/02/18 13:17:34;;;;;;;10.50;6.80;;;;;;;;;;6272369;28;20493;-75
2023/02/18 13:20:40;;;;;;;8.93;6.43;;;;;;;;;;6269736;28;20059;-75
2023/02/18 13:23:52;;;;;;;7.57;6.35;;;;;;;;;;6271484;28;20057;-74
2023/02/18 13:26:58;;;;;;;9.55;7.22;;;;;;;;;;6271251;28;20049;-74
2023/02/18 13:30:17;;;;;;;7.82;5.97;;;;;;;;;;6273304;28;20048;-74
2023/02/18 13:33:23;;;;;;;8.45;6.28;;;;;;;;;;6270687;28;20384;-74
2023/02/18 13:36:34;;;;;;;7.97;6.65;;;;;;;;;;6272763;28;20098;-73
2023/02/18 13:39:37;;;;;;;9.43;6.55;;;;;;;;;;6272745;28;20111;-73
2023/02/18 13:42:39;;;;;;;8.15;7.15;;;;;;;;;;6271080;28;20056;-74
2023/02/18 13:45:41;;;;;;;10.65;7.38;;;;;;;;;;6273683;28;20087;-73
2023/02/18 13:48:45;;;;;;;9.70;6.60;;;;;;;;;;6270056;28;20053;-75
2023/02/18 13:51:49;;;;;;;12.02;6.97;;;;;;;;;;6269156;28;20061;-74
2023/02/18 13:54:52;;;;;;;8.35;7.45;;;;;;;;;;6272498;28;20060;-74
2023/02/18 13:57:55;;;;;;;12.57;7.70;;;;;;;;;;6271766;28;20049;-75
2023/02/18 14:01:01;;;;;;;11.55;7.68;;;;;;;;;;6266257;28;20056;-74
2023/02/18 14:04:03;;;;;;;13.13;8.00;;;;;;;;;;6269367;28;20119;-75
2023/02/18 14:07:26;;;;;;;11.25;8.43;;;;;;;;;;6265723;28;20052;-75
2023/02/18 14:10:34;;;;;;;9.75;7.82;;;;;;;;;;6270621;28;20061;-75
2023/02/18 14:13:40;;;;;;;10.05;7.40;;;;;;;;;;6267570;28;20049;-74
2023/02/18 14:17:13;;;;;;;12.77;7.95;;;;;;;;;;6271574;28;20049;-74
2023/02/18 14:20:47;;;;;;;9.48;7.60;;;;;;;;;;6272323;28;20053;-76
2023/02/18 14:24:00;;;;;;;9.80;8.02;;;;;;;;;;6270230;28;20053;-75
2023/02/18 14:27:14;;;;;;;9.93;8.20;;;;;;;;;;6269253;28;20128;-75
2023/02/18 14:30:25;;;;;;;10.52;8.40;;;;;;;;;;6267720;28;20052;-74
2023/02/18 14:33:30;;;;;;;12.27;8.18;;;;;;;;;;6265351;28;20052;-74
2023/02/18 14:36:37;;;;;;;10.25;8.23;;;;;;;;;;6266948;28;20092;-74
2023/02/18 14:39:47;;;;;;;10.77;7.22;;;;;;;;;;6264362;28;20316;-74
2023/02/18 14:42:56;;;;;;;9.93;7.22;;;;;;;;;;6262699;28;20059;-74
2023/02/18 14:46:08;;;;;;;9.02;6.60;;;;;;;;;;6264412;28;20145;-76
2023/02/18 14:49:22;;;;;;;7.10;5.72;;;;;;;;;;6263800;28;20086;-75
2023/02/18 14:52:30;;;;;;;7.97;5.70;;;;;;;;;;6264214;28;20341;-75
2023/02/18 14:55:34;;;;;;;7.43;6.30;;;;;;;;;;6266229;28;20048;-73
2023/02/18 14:58:38;;;;;;;12.05;5.72;;;;;;;;;;6265850;28;20045;-74
2023/02/18 15:01:40;;;;;;;7.15;5.57;;;;;;;;;;6264541;28;20057;-74
2023/02/18 15:04:42;;;;;;;10.15;6.15;;;;;;;;;;6263159;28;20056;-73
2023/02/18 15:07:55;;;;;;;9.63;5.00;;;;;;;;;;6264003;28;20036;-74
2023/02/18 15:11:00;;;;;;;6.55;4.50;;;;;;;;;;6265442;28;20046;-75
2023/02/18 15:14:08;;;;;;;6.82;4.78;;;;;;;;;;6264885;28;20057;-75
2023/02/18 15:17:15;;;;;;;5.72;4.40;;;;;;;;;;6263277;28;20049;-74
2023/02/18 15:20:17;;;;;;;5.85;4.80;;;;;;;;;;6266130;28;20041;-71
2023/02/18 15:23:19;;;;;;;7.60;4.40;;;;;;;;;;6262962;28;20379;-76
2023/02/18 15:26:21;;;;;;;6.50;4.10;;;;;;;;;;6262942;28;20057;-75
2023/02/18 15:29:26;;;;;;;5.97;4.97;;;;;;;;;;6262175;28;20068;-76
2023/02/18 15:32:29;;;;;;;5.65;4.40;;;;;;;;;;6266244;28;20052;-77
2023/02/18 15:35:32;;;;;;;5.10;4.10;;;;;;;;;;6262551;28;20241;-76
2023/02/18 15:38:34;;;;;;;14.93;4.43;;;;;;;;;;6263209;28;20473;-74
2023/02/18 15:41:36;;;;;;;5.70;4.22;;;;;;;;;;6265133;28;20053;-73
2023/02/18 15:44:46;;;;;;;11.85;4.22;;;;;;;;;;6262984;28;20073;-75
2023/02/18 15:47:50;;;;;;;7.75;4.60;;;;;;;;;;6265184;28;20052;-73
2023/02/18 15:50:54;;;;;;;10.20;4.20;;;;;;;;;;6264017;28;20233;-73
2023/02/18 15:53:57;;;;;;;5.18;3.75;;;;;;;;;;6263708;28;20045;-73
2023/02/18 15:57:02;;;;;;;8.70;4.53;;;;;;;;;;6262892;28;20102;-72
2023/02/18 16:00:13;;;;;;;5.93;3.92;;;;;;;;;;6261776;28;20345;-72
2023/02/18 16:03:18;;;;;;;6.50;3.63;;;;;;;;;;6263195;28;20053;-72
2023/02/18 16:06:23;;;;;;;10.77;3.92;;;;;;;;;;6263960;28;20391;-73
2023/02/18 16:09:26;;;;;;;7.00;3.85;;;;;;;;;;6262496;28;20348;-73
2023/02/18 16:12:30;;;;;;;9.68;4.10;;;;;;;;;;6263762;28;20057;-72
2023/02/18 16:15:40;;;;;;;5.47;4.05;;;;;;;;;;6262880;28;20247;-72
2023/02/18 16:18:42;;;;;;;6.40;3.65;;;;;;;;;;6263531;28;20209;-72
2023/02/18 16:21:45;;;;;;;7.07;3.80;;;;;;;;;;6265800;28;20292;-73
2023/02/18 16:24:50;;;;;;;6.77;3.70;;;;;;;;;;6262244;28;20053;-73
2023/02/18 16:27:54;;;;;;;6.95;3.72;;;;;;;;;;6264438;28;20340;-73
2023/02/18 16:30:57;;;;;;;4.35;3.45;;;;;;;;;;6263840;28;20045;-72
2023/02/18 16:33:58;;;;;;;9.60;3.53;;;;;;;;;;6264582;28;20053;-73
2023/02/18 16:40:29;;;;;;;7.53;3.92;;;;;;;;;;6263784;28;20045;-73
2023/02/18 16:43:31;;;;;;;6.50;3.63;;;;;;;;;;6261872;28;20068;-73
2023/02/18 16:46:34;;;;;;;5.18;3.35;;;;;;;;;;6262966;28;20095;-72
2023/02/18 16:49:36;;;;;;;5.78;3.40;;;;;;;;;;6269067;28;20120;-73
2023/02/18 16:52:38;;;;;;;5.28;3.42;;;;;;;;;;6266165;28;20060;-73
2023/02/18 16:55:40;;;;;;;5.75;3.60;;;;;;;;;;6266037;28;20233;-72
2023/02/18 16:58:42;;;;;;;7.68;3.38;;;;;;;;;;6266292;28;20152;-72
2023/02/18 17:01:45;;;;;;;7.35;3.92;;;;;;;;;;6269541;28;20049;-70
2023/02/18 17:04:47;;;;;;;5.70;3.90;;;;;;;;;;6267732;28;20041;-73
2023/02/18 17:07:50;;;;;;;9.27;3.65;;;;;;;;;;6266161;28;20060;-73
2023/02/18 17:10:53;;;;;;;6.10;3.67;;;;;;;;;;6265325;28;20555;-73
2023/02/18 17:13:56;;;;;;;;;;;;;;;;;;6269468;28;20048;-73
2023/02/18 17:17:00;;;;;;;8.13;4.22;;;;;;;;;;6267053;28;19924;-73
2023/02/18 17:20:01;;;;;;;6.78;4.45;;;;;;;;;;6266921;28;20056;-73
2023/02/18 17:23:03;;;;;;;5.85;4.43;;;;;;;;;;6267250;28;20085;-73
2023/02/18 17:26:05;;;;;;;5.45;3.90;;;;;;;;;;6266991;28;20047;-71
2023/02/18 17:29:07;;;;;;;8.60;4.38;;;;;;;;;;6265177;28;20336;-73
2023/02/18 17:32:12;;;;;;;6.45;4.50;;;;;;;;;;6267844;28;20053;-72
2023/02/18 17:35:17;;;;;;;7.35;4.85;;;;;;;;;;6266040;28;20044;-72
2023/02/18 17:38:19;;;;;;;5.90;4.30;;;;;;;;;;6269527;28;20045;-73
2023/02/18 17:41:21;;;;;;;7.45;4.93;;;;;;;;;;6268813;28;20116;-73
2023/02/18 17:44:24;;;;;;;6.60;5.05;;;;;;;;;;6265461;28;20343;-73
2023/02/18 17:47:28;;;;;;;14.25;6.45;;;;;;;;;;6266370;28;20065;-73
2023/02/18 17:50:30;;;;;;;10.83;4.83;;;;;;;;;;6266440;28;20041;-71
2023/02/18 17:53:32;;;;;;;10.10;4.75;;;;;;;;;;6266574;28;20057;-73
2023/02/18 17:56:35;;;;;;;8.38;4.20;;;;;;;;;;6265302;28;20065;-71
2023/02/18 17:59:36;;;;;;;6.22;4.18;;;;;;;;;;6266462;28;20041;-72
2023/02/18 18:02:39;;;;;;;9.38;5.10;;;;;;;;;;6266345;28;20144;-72
2023/02/18 18:05:43;;;;;;;6.33;4.50;;;;;;;;;;6263320;28;20108;-72
2023/02/18 18:08:45;;;;;;;9.25;4.85;;;;;;;;;;6253625;28;20093;-72
2023/02/18 18:11:47;;;;;;;6.47;4.32;;;;;;;;;;6264741;28;20057;-73
2023/02/18 18:14:49;;;;;;;7.00;4.68;;;;;;;;;;6266012;28;20166;-73
2023/02/18 18:17:52;;;;;;;7.72;4.80;;;;;;;;;;6265270;28;20148;-73
2023/02/18 18:20:57;;;;;;;7.85;5.10;;;;;;;;;;6261479;28;20064;-73